SBSL/SLZ METAR and TAF weather

Enter ICAO airport designator
Station Type Date Time Source
SBSL METAR 2019/02/18 04:00 UTC NOAA

SBSL 180400Z 11004KT 9999 SCT017 FEW025TCU BKN100 24/24 Q1012


Station Type Date Time Source
SBSL Decoded METAR 2019/02/18 04:00 UTC NOAA

Sao Luiz Aeroporto , Brazil (SBSL) 02-36S 044-14W 53M
Feb 17, 2019 - 11:00 PM EST / 2019.02.18 0400 UTC
Wind: from the ESE (110 degrees) at 5 MPH (4 KT):0
Visibility: greater than 7 mile(s):0
Sky conditions: mostly cloudy
Weather: Towering cumulus clouds observed
Temperature: 75 F (24 C)
Dew Point: 75 F (24 C)
Relative Humidity: 100%
Pressure (altimeter): 29.88 in. Hg (1012 hPa)
ob: SBSL 180400Z 11004KT 9999 SCT017 FEW025TCU BKN100 24/24 Q1012
cycle: 4

Station Type Date Time Source
SBSL TAF 2019/02/18 00:35 UTC NOAA

TAF SBSL 172200Z 1800/1824 03007KT 9999 SCT017 TN25/1808Z TX30/1817Z
BECMG 1801/1803 06008KT
BECMG 1810/1812 03008KT BKN017
BECMG 1815/1817 06013KT FEW025TCU
BECMG 1820/1822 03010KT BKN015
RMK PFN


Example: see airport list